Sonnette, Montana
Current Conditions -  °F | °C
As of 6:53 AM on Wednesday 28 Jan 2015 (Local Time) from KMLS Reporting Station
Few Clouds Few Clouds  
Wind Chill: 37°   Ceiling: Unl
Heat Index: 43°   Visibility: 10mi
Dew Point: 30°   Wind: 10mph
Humidity: 60%   Direction: 320°NW
Pressure: 29.89"   Gusts: NA
Location:  45.44°N, 105.41°W
Report Text: KMLS 281353Z AUTO 32009KT 10SM FEW120 06/M01 A2989 RMK AO2 SLP126 T00611011
Loading
Personal Weather Stations






























Interactive Weather Map New forecast layout! Learn more

10-Day Weather Forecast

Advertisements
Track Severe Weather on mobile